Anita, Pennsylvania
Current Conditions -  °F | °C
As of 6:53 PM on Friday 21 Nov 2014 (Local Time) from KDUJ Reporting Station
Clear Clear  
Wind Chill: 16°   Ceiling: Unl
Heat Index: 16°   Visibility: 10mi
Dew Point:   Wind: 0mph
Humidity: 71%   Direction: NA
Pressure: 30.41"   Gusts: NA
Location:  41°N, 78.96°W
Report Text: KDUJ 212353Z AUTO 00000KT 10SM CLR M09/M13 A3041 RMK AO2 SLP329 T10891133 11050 21089 51007
Loading
Personal Weather Stations






























Interactive Weather Map New forecast layout! Learn more

10-Day Weather Forecast

Advertisements
Track Severe Weather on mobile